Terminal Aerodrome Forecast
Issued by NWS Tampa Bay Area, FL

Home | Current Version | Previous Version | Text Only | Print | Product List | Glossary Off
Versions: 1 2 3 4 5 6 7 8 9 10 11 12 13 14 15 16 17 18 19 20 21 22 23 24 25 26 27 28 29

000
FTUS42 KTBW 301100
TAFTPA
TAF
KTPA 301132Z 3012/0112 VRB05KT P6SM VCSH BKN025 BKN110
     FM301400 24008KT P6SM VCTS SCT025CB BKN080
     FM302100 27008KT P6SM VCTS SCT030CB BKN080
     FM010200 VRB03KT P6SM VCSH SCT025 BKN050=

USA.gov is the U.S. government's official web portal to all federal, state and local government web resources and services.